Time;durP1;ratioP1;P1;durP2;ratioP2;P2;SDS_P1;SDS_P2;PMS_P1;PMS_P2;Temp;Humidity;BMP_temperature;BMP_pressure;BME280_temperature;BME280_humidity;BME280_pressure;Samples;Min_cycle;Max_cycle;Signal;HPM_P1;HPM_P2
2021/07/02 00:01:42;;;;;;;4.50;3.00;;;23.50;64.70;;;;;;5236969;27;20554;-56
2021/07/02 00:04:25;;;;;;;3.83;2.38;;;23.50;64.70;;;;;;5247935;27;21065;-56
2021/07/02 00:07:08;;;;;;;5.10;2.40;;;23.50;64.70;;;;;;5206740;28;20519;-54
2021/07/02 00:09:50;;;;;;;3.58;2.38;;;23.50;64.80;;;;;;5236660;27;20511;-54
2021/07/02 00:12:34;;;;;;;3.28;2.25;;;23.50;64.80;;;;;;5215799;28;20426;-57
2021/07/02 00:15:18;;;;;;;4.90;2.58;;;23.50;64.80;;;;;;5215482;28;20423;-56
2021/07/02 00:18:02;;;;;;;5.15;2.42;;;23.50;64.80;;;;;;5209844;28;20419;-56
2021/07/02 00:20:46;;;;;;;4.65;2.40;;;23.50;64.90;;;;;;5217161;28;20970;-57
2021/07/02 00:23:29;;;;;;;5.00;2.65;;;23.50;64.90;;;;;;5210416;28;20432;-57
2021/07/02 00:26:12;;;;;;;5.30;2.80;;;23.40;64.80;;;;;;5256316;27;20439;-57
2021/07/02 00:28:55;;;;;;;4.30;2.50;;;23.40;64.80;;;;;;5292250;27;20815;-57
2021/07/02 00:31:38;;;;;;;4.07;2.42;;;23.40;64.90;;;;;;5240843;28;20422;-55
2021/07/02 00:34:21;;;;;;;4.68;2.50;;;23.40;64.90;;;;;;5244488;28;20430;-57
2021/07/02 00:37:04;;;;;;;5.13;2.58;;;23.40;64.90;;;;;;5226124;27;20571;-53
2021/07/02 00:39:47;;;;;;;3.67;2.50;;;23.40;64.90;;;;;;5211636;28;21044;-55
2021/07/02 00:42:30;;;;;;;5.63;2.75;;;23.40;64.90;;;;;;5202068;28;20457;-58
2021/07/02 00:45:13;;;;;;;3.53;2.30;;;23.40;65.00;;;;;;5241915;27;20506;-52
2021/07/02 00:47:57;;;;;;;5.25;2.80;;;23.40;65.00;;;;;;5207758;28;20519;-54
2021/07/02 00:50:43;;;;;;;7.68;2.10;;;23.40;65.00;;;;;;5250705;27;21905;-52
2021/07/02 00:53:43;;;;;;;7.43;2.33;;;23.40;65.00;;;;;;5244635;27;21043;-57
2021/07/02 00:56:30;;;;;;;2.50;1.98;;;23.40;64.90;;;;;;5218260;28;20454;-55
2021/07/02 00:59:12;;;;;;;5.03;3.00;;;23.40;65.00;;;;;;5203738;28;20491;-55
2021/07/02 01:01:55;;;;;;;3.08;2.40;;;23.40;65.00;;;;;;5242444;28;21114;-58
2021/07/02 01:04:38;;;;;;;3.25;2.35;;;23.40;65.00;;;;;;5225860;27;20918;-53
2021/07/02 01:07:21;;;;;;;3.80;2.47;;;23.40;65.00;;;;;;5267939;27;20428;-56
2021/07/02 01:10:05;;;;;;;5.40;2.30;;;23.40;65.00;;;;;;5224598;28;20415;-55
2021/07/02 01:12:49;;;;;;;4.88;2.40;;;23.40;65.10;;;;;;5243809;27;20859;-56
2021/07/02 01:15:35;;;;;;;4.20;2.45;;;23.30;65.00;;;;;;5264318;27;20851;-54
2021/07/02 01:18:25;;;;;;;5.85;2.50;;;23.30;65.00;;;;;;5264129;27;20426;-55
2021/07/02 01:21:12;;;;;;;3.63;2.45;;;23.30;65.10;;;;;;5245552;27;20484;-57
2021/07/02 01:23:59;;;;;;;4.47;2.25;;;23.30;65.10;;;;;;5308518;27;21387;-54
2021/07/02 01:26:44;;;;;;;8.63;2.42;;;23.30;65.00;;;;;;5221231;28;20521;-55
2021/07/02 01:29:26;;;;;;;3.53;2.17;;;23.30;65.10;;;;;;5207822;28;20502;-56
2021/07/02 01:32:10;;;;;;;4.93;2.33;;;23.30;65.10;;;;;;5205350;28;20928;-57
2021/07/02 01:34:55;;;;;;;4.05;2.58;;;23.30;65.10;;;;;;5206528;28;20497;-56
2021/07/02 01:37:40;;;;;;;3.20;2.45;;;23.30;65.10;;;;;;5311946;27;20412;-56
2021/07/02 01:40:25;;;;;;;3.30;2.60;;;23.30;65.10;;;;;;5268838;27;20429;-53
2021/07/02 01:43:08;;;;;;;3.03;2.63;;;23.30;65.10;;;;;;5246013;28;20429;-57
2021/07/02 01:45:54;;;;;;;2.97;2.30;;;23.30;65.10;;;;;;5246559;27;20517;-50
2021/07/02 01:48:37;;;;;;;3.10;2.25;;;23.30;65.10;;;;;;5209052;28;20428;-57
2021/07/02 01:51:21;;;;;;;5.55;2.65;;;23.30;65.20;;;;;;5267651;27;20450;-52
2021/07/02 01:54:04;;;;;;;3.30;2.22;;;23.30;65.10;;;;;;5250555;27;20527;-54
2021/07/02 01:56:50;;;;;;;3.38;2.55;;;23.30;65.20;;;;;;5194945;28;20728;-56
2021/07/02 01:59:37;;;;;;;3.20;2.35;;;23.30;65.20;;;;;;5247875;27;20499;-53
2021/07/02 02:02:24;;;;;;;3.17;2.33;;;23.30;65.10;;;;;;5230472;27;20510;-53
2021/07/02 02:05:13;;;;;;;2.70;2.03;;;23.20;65.10;;;;;;5223211;28;20438;-55
2021/07/02 02:07:56;;;;;;;3.97;2.78;;;23.30;65.10;;;;;;5207148;28;20679;-55
2021/07/02 02:10:39;;;;;;;2.72;2.25;;;23.20;65.10;;;;;;5209144;28;20494;-57
2021/07/02 02:13:23;;;;;;;3.20;2.33;;;23.20;65.10;;;;;;5220727;28;20975;-52
2021/07/02 02:16:14;;;;;;;3.30;2.40;;;23.20;65.10;;;;;;5208223;28;20492;-55
2021/07/02 02:19:04;;;;;;;3.53;2.15;;;23.20;65.10;;;;;;5246652;28;20441;-54
2021/07/02 02:21:49;;;;;;;3.42;2.08;;;23.20;65.10;;;;;;5208410;28;21094;-56
2021/07/02 02:24:33;;;;;;;4.15;2.50;;;23.20;65.10;;;;;;5207604;28;20999;-55
2021/07/02 02:27:18;;;;;;;2.22;2.00;;;23.20;65.10;;;;;;5247676;27;20476;-52
2021/07/02 02:30:05;;;;;;;4.80;2.65;;;23.20;65.10;;;;;;5222991;28;20497;-52
2021/07/02 02:32:48;;;;;;;3.47;2.40;;;23.20;65.10;;;;;;5198881;28;20496;-54
2021/07/02 02:35:39;;;;;;;3.22;2.50;;;23.20;65.10;;;;;;5240948;27;20599;-55
2021/07/02 02:38:22;;;;;;;3.50;2.10;;;23.20;65.10;;;;;;5203474;28;20830;-52
2021/07/02 02:41:05;;;;;;;3.28;2.67;;;23.20;65.20;;;;;;5212515;28;20893;-57
2021/07/02 02:43:48;;;;;;;4.03;2.53;;;23.20;65.10;;;;;;5210738;28;21344;-57
2021/07/02 02:46:31;;;;;;;2.58;2.20;;;23.20;65.10;;;;;;5226841;27;21049;-54
2021/07/02 02:49:16;;;;;;;2.35;2.03;;;23.20;65.10;;;;;;5259921;27;21069;-53
2021/07/02 02:51:59;;;;;;;4.75;2.63;;;23.20;65.20;;;;;;5219125;28;21110;-54
2021/07/02 02:54:42;;;;;;;5.57;2.47;;;23.20;65.30;;;;;;5224892;28;20847;-54
2021/07/02 02:57:25;;;;;;;4.05;2.40;;;23.20;65.30;;;;;;5241646;27;20471;-53
2021/07/02 03:00:10;;;;;;;4.10;2.58;;;23.20;65.30;;;;;;5212349;28;20427;-51
2021/07/02 03:02:54;;;;;;;3.10;2.55;;;23.20;65.30;;;;;;5234511;27;20418;-55
2021/07/02 03:05:50;;;;;;;3.60;2.53;;;23.20;65.30;;;;;;5274208;27;20446;-53
2021/07/02 03:08:33;;;;;;;4.55;2.63;;;23.20;65.30;;;;;;5209369;28;20916;-53
2021/07/02 03:11:21;;;;;;;5.65;2.50;;;23.20;65.30;;;;;;5223993;28;20432;-50
2021/07/02 03:14:05;;;;;;;4.07;2.20;;;23.20;65.30;;;;;;5207144;28;20998;-55
2021/07/02 03:16:51;;;;;;;2.58;2.22;;;23.20;65.30;;;;;;5226764;28;20438;-55
2021/07/02 03:19:35;;;;;;;3.97;2.20;;;23.20;65.30;;;;;;5205909;28;20427;-58
2021/07/02 03:22:18;;;;;;;2.88;2.50;;;23.20;65.30;;;;;;5223221;28;20463;-55
2021/07/02 03:25:04;;;;;;;4.28;2.40;;;23.20;65.40;;;;;;5201875;28;20453;-55
2021/07/02 03:27:47;;;;;;;3.72;2.60;;;23.20;65.40;;;;;;5268926;27;20502;-58
2021/07/02 03:30:32;;;;;;;3.78;2.40;;;23.20;65.40;;;;;;5288106;27;20475;-53
2021/07/02 03:33:14;;;;;;;2.95;2.35;;;23.20;65.40;;;;;;5210727;28;20425;-57
2021/07/02 03:35:57;;;;;;;3.33;2.70;;;23.20;65.40;;;;;;5220967;28;20836;-56
2021/07/02 03:38:41;;;;;;;3.00;2.40;;;23.10;65.30;;;;;;5215154;28;20490;-55
2021/07/02 03:41:25;;;;;;;3.72;2.40;;;23.20;65.40;;;;;;5230187;27;20485;-56
2021/07/02 03:44:08;;;;;;;5.22;1.85;;;23.20;65.40;;;;;;5249663;27;20588;-52
2021/07/02 03:46:53;;;;;;;3.65;2.53;;;23.10;66.00;;;;;;5212039;28;20424;-52
2021/07/02 03:49:36;;;;;;;3.40;2.05;;;23.20;65.40;;;;;;5316849;27;20833;-54
2021/07/02 03:52:19;;;;;;;2.55;2.17;;;23.10;65.30;;;;;;5291633;27;20861;-54
2021/07/02 03:55:02;;;;;;;4.25;2.58;;;23.20;65.40;;;;;;5201089;28;20507;-53
2021/07/02 03:57:46;;;;;;;5.75;2.70;;;23.10;65.30;;;;;;5234414;27;21538;-52
2021/07/02 04:00:30;;;;;;;3.72;2.40;;;23.10;65.30;;;;;;5223134;28;20501;-52
2021/07/02 04:03:15;;;;;;;3.17;2.30;;;23.10;65.30;;;;;;5206314;28;20504;-55
2021/07/02 04:05:59;;;;;;;2.67;2.10;;;23.10;65.40;;;;;;5241801;28;21011;-56
2021/07/02 04:08:43;;;;;;;3.88;2.63;;;23.10;65.40;;;;;;5224773;28;20526;-55
2021/07/02 04:11:26;;;;;;;2.70;2.15;;;23.20;65.60;;;;;;5220189;28;20438;-58
2021/07/02 04:14:09;;;;;;;3.08;2.47;;;23.10;65.60;;;;;;5201612;28;21075;-54
2021/07/02 04:16:53;;;;;;;2.80;2.20;;;23.10;65.60;;;;;;5237284;27;20521;-52
2021/07/02 04:19:38;;;;;;;3.53;2.80;;;23.10;65.60;;;;;;5237367;27;20421;-56
2021/07/02 04:22:21;;;;;;;6.45;2.35;;;23.10;65.60;;;;;;5198730;28;20510;-53
2021/07/02 04:25:07;;;;;;;3.65;2.40;;;23.10;65.60;;;;;;5263602;27;20507;-54
2021/07/02 04:27:51;;;;;;;4.45;2.20;;;23.20;65.80;;;;;;5198177;27;20490;-54
2021/07/02 04:30:34;;;;;;;7.43;2.40;;;23.10;65.80;;;;;;5222382;28;20495;-57
2021/07/02 04:33:18;;;;;;;2.85;1.90;;;23.10;65.70;;;;;;5198456;28;20539;-55
2021/07/02 04:36:02;;;;;;;3.80;2.20;;;23.10;65.80;;;;;;5293660;27;20481;-57
2021/07/02 04:38:45;;;;;;;4.13;2.25;;;23.10;65.70;;;;;;5234204;27;21750;-55
2021/07/02 04:41:29;;;;;;;3.65;2.50;;;23.10;65.80;;;;;;5243371;27;20499;-56
2021/07/02 04:44:12;;;;;;;3.42;2.17;;;23.10;65.80;;;;;;5240538;27;20538;-53
2021/07/02 04:46:55;;;;;;;6.28;2.67;;;23.10;65.50;;;;;;5242976;27;20583;-55
2021/07/02 04:49:38;;;;;;;8.32;3.10;;;23.10;65.50;;;;;;5250985;27;20492;-52
2021/07/02 04:52:21;;;;;;;9.50;3.45;;;23.10;65.50;;;;;;5258160;27;20618;-54
2021/07/02 04:55:04;;;;;;;3.55;2.75;;;23.10;65.40;;;;;;5220510;27;20557;-54
2021/07/02 04:57:47;;;;;;;5.00;2.88;;;23.00;66.00;;;;;;5190066;28;20503;-56
2021/07/02 05:00:35;;;;;;;15.77;3.47;;;23.00;65.60;;;;;;5247326;27;20411;-55
2021/07/02 05:03:19;;;;;;;10.60;3.80;;;23.10;65.70;;;;;;5226454;27;20920;-57
2021/07/02 05:06:03;;;;;;;9.43;3.17;;;23.10;65.80;;;;;;5213786;27;20452;-57
2021/07/02 05:08:47;;;;;;;15.57;3.70;;;23.20;65.70;;;;;;5198594;27;20413;-57
2021/07/02 05:11:31;;;;;;;18.45;3.80;;;23.20;65.50;;;;;;5216909;27;20490;-56
2021/07/02 05:14:16;;;;;;;20.13;3.67;;;23.30;65.40;;;;;;5188521;27;20409;-56
2021/07/02 05:17:02;;;;;;;7.97;3.15;;;23.30;65.20;;;;;;5197526;27;20414;-53
2021/07/02 05:19:45;;;;;;;10.30;3.63;;;23.40;65.10;;;;;;5157987;28;20521;-57
2021/07/02 05:22:29;;;;;;;14.55;3.05;;;23.40;65.00;;;;;;5160465;27;20439;-56
2021/07/02 05:25:13;;;;;;;9.77;3.20;;;23.50;65.00;;;;;;5152805;27;20962;-55
2021/07/02 05:27:57;;;;;;;25.67;4.25;;;23.50;64.80;;;;;;5189574;28;20519;-58
2021/07/02 05:30:41;;;;;;;11.43;3.33;;;23.60;64.60;;;;;;5239494;27;21745;-56
2021/07/02 05:33:24;;;;;;;9.63;3.17;;;23.70;64.50;;;;;;5198396;28;21146;-57
2021/07/02 05:36:07;;;;;;;12.43;3.80;;;23.70;64.20;;;;;;5228419;27;20410;-56
2021/07/02 05:38:50;;;;;;;9.65;3.05;;;23.70;64.30;;;;;;5173748;28;20437;-58
2021/07/02 05:41:33;;;;;;;14.43;2.95;;;23.80;64.10;;;;;;5215692;27;20588;-56
2021/07/02 05:44:16;;;;;;;12.48;3.05;;;23.80;63.90;;;;;;5215637;27;20401;-54
2021/07/02 05:46:59;;;;;;;12.95;3.65;;;23.80;63.70;;;;;;5226831;27;20438;-56
2021/07/02 05:49:43;;;;;;;8.88;3.17;;;23.90;63.70;;;;;;5182596;28;20775;-58
2021/07/02 05:52:26;;;;;;;7.93;3.05;;;23.90;63.50;;;;;;5184450;27;20412;-57
2021/07/02 05:55:12;;;;;;;6.57;2.70;;;23.90;63.40;;;;;;5201905;27;20414;-56
2021/07/02 05:57:56;;;;;;;5.47;2.50;;;24.00;63.40;;;;;;5202065;27;20477;-55
2021/07/02 06:00:39;;;;;;;7.78;3.17;;;24.00;63.30;;;;;;5233220;27;20527;-58
2021/07/02 06:03:21;;;;;;;6.82;3.08;;;24.00;63.40;;;;;;5209057;28;20417;-56
2021/07/02 06:06:05;;;;;;;13.85;4.07;;;24.00;63.20;;;;;;5201707;27;20770;-57
2021/07/02 06:08:50;;;;;;;8.45;3.10;;;24.00;63.10;;;;;;5204161;27;21555;-57
2021/07/02 06:11:34;;;;;;;11.00;2.85;;;24.00;63.70;;;;;;5200404;27;21237;-55
2021/07/02 06:14:17;;;;;;;10.63;2.83;;;24.10;63.10;;;;;;5205363;27;20500;-57
2021/07/02 06:17:00;;;;;;;10.07;3.40;;;24.10;63.00;;;;;;5185229;28;20998;-57
2021/07/02 06:19:43;;;;;;;8.50;3.00;;;24.10;62.90;;;;;;5158639;28;20487;-55
2021/07/02 06:22:26;;;;;;;8.52;3.00;;;24.10;62.90;;;;;;5185580;28;20501;-57
2021/07/02 06:25:11;;;;;;;5.18;2.70;;;24.10;62.90;;;;;;5168488;28;20561;-56
2021/07/02 06:27:53;;;;;;;4.88;3.08;;;24.10;62.80;;;;;;5222950;27;20508;-58
2021/07/02 06:30:36;;;;;;;6.97;2.72;;;24.10;62.70;;;;;;5223376;27;21336;-55
2021/07/02 06:33:19;;;;;;;7.40;2.78;;;24.20;62.70;;;;;;5241194;27;20514;-56
2021/07/02 06:36:03;;;;;;;7.28;3.10;;;24.20;62.80;;;;;;5240323;27;20530;-58
2021/07/02 06:38:45;;;;;;;5.28;2.72;;;24.20;62.80;;;;;;5177501;28;20518;-57
2021/07/02 06:41:27;;;;;;;4.37;3.03;;;24.20;62.90;;;;;;5226989;27;1210964;-55
2021/07/02 06:44:10;;;;;;;6.63;2.95;;;24.20;62.80;;;;;;5228313;27;20653;-56
2021/07/02 06:46:53;;;;;;;8.52;3.13;;;24.20;62.90;;;;;;5188014;28;20503;-57
2021/07/02 06:49:38;;;;;;;6.75;3.05;;;24.20;62.80;;;;;;5231074;27;20510;-55
2021/07/02 06:52:22;;;;;;;3.95;2.30;;;24.20;62.80;;;;;;5209703;28;20490;-58
2021/07/02 06:55:06;;;;;;;6.28;3.10;;;24.20;62.70;;;;;;5208569;28;20544;-57
2021/07/02 06:57:48;;;;;;;4.82;3.30;;;24.20;62.70;;;;;;5243255;27;20967;-57
2021/07/02 07:00:31;;;;;;;4.03;2.47;;;24.20;62.70;;;;;;5232442;27;20990;-57
2021/07/02 07:03:14;;;;;;;6.25;2.47;;;24.20;62.60;;;;;;5289829;27;21178;-53
2021/07/02 07:05:57;;;;;;;4.45;2.88;;;24.30;62.70;;;;;;5266656;27;20494;-55
2021/07/02 07:08:40;;;;;;;7.47;2.80;;;24.30;62.60;;;;;;5212715;28;20489;-58
2021/07/02 07:11:23;;;;;;;3.85;2.95;;;24.30;62.50;;;;;;5236377;27;20598;-56
2021/07/02 07:14:06;;;;;;;5.05;2.80;;;24.30;62.50;;;;;;5230423;28;20537;-58
2021/07/02 07:16:50;;;;;;;5.35;3.10;;;24.30;62.50;;;;;;5198339;28;20562;-57
2021/07/02 07:19:34;;;;;;;12.90;3.30;;;24.30;62.50;;;;;;5251053;27;20531;-56
2021/07/02 07:22:17;;;;;;;5.15;3.25;;;24.30;62.40;;;;;;5244707;27;21325;-57
2021/07/02 07:25:02;;;;;;;5.20;2.83;;;24.30;62.50;;;;;;5270092;27;20510;-58
2021/07/02 07:27:44;;;;;;;6.45;3.33;;;24.30;62.50;;;;;;5265607;27;20920;-55
2021/07/02 07:30:27;;;;;;;5.15;2.72;;;24.30;62.40;;;;;;5204201;27;20998;-58
2021/07/02 07:33:11;;;;;;;4.53;2.63;;;24.30;62.30;;;;;;5240852;27;20413;-58
2021/07/02 07:35:55;;;;;;;5.43;3.08;;;24.40;62.30;;;;;;5241223;27;20403;-59
2021/07/02 07:38:38;;;;;;;4.45;3.22;;;24.40;61.70;;;;;;5196726;28;20997;-58
2021/07/02 07:41:23;;;;;;;8.10;3.40;;;24.40;62.30;;;;;;5217649;28;20521;-58
2021/07/02 07:44:06;;;;;;;4.72;2.90;;;24.40;62.40;;;;;;5218560;27;20505;-57
2021/07/02 07:46:49;;;;;;;6.35;3.28;;;24.40;62.40;;;;;;5189173;28;20502;-55
2021/07/02 07:49:32;;;;;;;10.65;3.72;;;24.40;62.30;;;;;;5199358;27;20414;-58
2021/07/02 07:52:18;;;;;;;6.72;3.67;;;24.40;62.40;;;;;;5232170;28;21081;-57
2021/07/02 07:55:03;;;;;;;11.35;3.45;;;24.40;62.50;;;;;;5205439;28;20569;-57
2021/07/02 07:57:47;;;;;;;10.20;4.30;;;24.40;62.60;;;;;;5215854;27;20814;-57
2021/07/02 08:00:30;;;;;;;10.25;3.38;;;24.40;63.00;;;;;;5214638;28;20524;-58
2021/07/02 08:03:13;;;;;;;6.97;3.75;;;24.40;62.60;;;;;;5226499;27;20835;-58
2021/07/02 08:05:56;;;;;;;6.75;2.92;;;24.40;62.50;;;;;;5230452;28;20504;-56
2021/07/02 08:08:39;;;;;;;8.20;4.13;;;24.40;62.40;;;;;;5243310;27;20504;-57
2021/07/02 08:11:22;;;;;;;9.70;3.90;;;24.50;62.40;;;;;;5240445;27;20496;-57
2021/07/02 08:14:06;;;;;;;9.63;3.40;;;24.50;63.20;;;;;;5203624;28;20632;-57
2021/07/02 08:16:50;;;;;;;7.30;3.58;;;24.50;62.40;;;;;;5264556;27;20506;-58
2021/07/02 08:19:34;;;;;;;8.20;3.80;;;24.50;62.40;;;;;;5194311;28;20428;-56
2021/07/02 08:22:17;;;;;;;6.85;3.55;;;24.40;62.40;;;;;;5189038;28;20554;-57
2021/07/02 08:25:00;;;;;;;11.02;3.60;;;24.50;62.40;;;;;;5200686;28;20544;-57
2021/07/02 08:30:35;;;;;;;9.65;3.40;;;24.50;62.40;;;;;;5203085;27;20570;-58
2021/07/02 08:33:20;;;;;;;6.32;3.47;;;24.40;62.30;;;;;;5191578;28;20841;-57
2021/07/02 08:36:04;;;;;;;6.47;3.28;;;24.50;62.20;;;;;;5242339;27;20682;-58
2021/07/02 08:38:47;;;;;;;4.70;3.17;;;24.50;62.20;;;;;;5210988;27;20406;-57
2021/07/02 08:41:31;;;;;;;8.70;3.40;;;24.50;62.30;;;;;;5206676;28;20504;-56
2021/07/02 08:44:14;;;;;;;7.82;3.90;;;24.40;62.20;;;;;;5221654;27;21131;-57
2021/07/02 08:46:59;;;;;;;7.72;3.85;;;24.50;62.20;;;;;;5219690;27;20505;-55
2021/07/02 08:49:45;;;;;;;6.30;3.35;;;24.50;62.30;;;;;;5211462;28;20939;-57
2021/07/02 08:52:28;;;;;;;5.65;3.60;;;24.40;62.20;;;;;;5197743;28;21038;-58
2021/07/02 08:55:12;;;;;;;6.22;3.47;;;24.40;62.20;;;;;;5228179;27;20412;-55
2021/07/02 08:57:56;;;;;;;6.82;3.65;;;24.50;62.30;;;;;;5225233;27;21095;-58
2021/07/02 09:00:40;;;;;;;8.98;3.90;;;24.50;62.20;;;;;;5193044;27;20500;-56
2021/07/02 09:03:31;;;;;;;6.32;3.20;;;24.50;62.30;;;;;;5233034;27;20505;-57
2021/07/02 09:06:15;;;;;;;8.65;3.53;;;24.50;62.20;;;;;;5272480;27;20530;-54
2021/07/02 09:09:02;;;;;;;6.35;3.75;;;24.50;62.30;;;;;;5180469;28;20510;-56
2021/07/02 09:11:45;;;;;;;4.88;3.15;;;24.50;62.20;;;;;;5190491;28;20947;-59
2021/07/02 09:14:29;;;;;;;6.18;3.47;;;24.50;62.30;;;;;;5224335;27;20523;-58
2021/07/02 09:17:13;;;;;;;16.58;2.60;;;24.60;62.70;;;;;;5210100;27;21219;-58
2021/07/02 09:20:11;;;;;;;13.60;3.70;;;24.70;62.80;;;;;;5249547;27;20521;-57
2021/07/02 09:22:58;;;;;;;5.68;2.83;;;24.80;62.10;;;;;;5243094;27;20486;-58
2021/07/02 09:25:51;;;;;;;8.30;3.13;;;24.80;62.10;;;;;;5186643;28;20576;-57
2021/07/02 09:28:37;;;;;;;10.18;3.95;;;24.80;62.20;;;;;;5210668;28;20544;-57
2021/07/02 09:31:34;;;;;;;10.93;2.97;;;24.80;62.20;;;;;;5210044;28;20874;-57
2021/07/02 09:34:18;;;;;;;8.23;3.25;;;24.70;62.10;;;;;;5204061;28;20484;-58
2021/07/02 09:37:26;;;;;;;4.60;3.05;;;24.70;62.20;;;;;;5209599;28;20497;-56
2021/07/02 09:40:24;;;;;;;7.65;3.15;;;24.70;62.10;;;;;;5247377;27;20516;-57
2021/07/02 09:43:08;;;;;;;11.13;3.15;;;24.70;62.20;;;;;;5243590;27;20503;-57
2021/07/02 09:45:57;;;;;;;5.53;3.00;;;24.60;62.20;;;;;;5208456;28;20530;-57
2021/07/02 09:48:42;;;;;;;7.68;3.17;;;24.60;62.20;;;;;;5208983;28;20529;-57
2021/07/02 09:51:23;;;;;;;7.32;3.40;;;24.70;62.20;;;;;;5199552;28;20048;-58
2021/07/02 09:54:06;;;;;;;5.93;3.28;;;24.60;62.00;;;;;;5207563;28;20784;-57
2021/07/02 09:56:38;;;;;;;5.25;3.08;;;24.70;62.00;;;;;;5206406;28;20053;-57
2021/07/02 09:59:17;;;;;;;6.07;3.25;;;24.70;62.00;;;;;;5198558;28;20048;-56
2021/07/02 10:02:18;;;;;;;8.48;3.20;;;24.70;62.00;;;;;;5204333;28;20523;-58
2021/07/02 10:04:58;;;;;;;4.95;3.00;;;24.60;61.90;;;;;;5199376;28;20064;-55
2021/07/02 10:07:31;;;;;;;5.07;2.97;;;24.70;61.90;;;;;;5204279;28;20067;-56
2021/07/02 10:10:04;;;;;;;7.03;3.37;;;24.70;62.00;;;;;;5206341;28;20055;-56
2021/07/02 10:12:36;;;;;;;5.57;3.10;;;24.70;62.00;;;;;;5198085;28;20306;-57
2021/07/02 10:15:09;;;;;;;3.65;2.70;;;24.70;62.00;;;;;;5191690;28;20053;-56
2021/07/02 10:17:42;;;;;;;5.57;3.10;;;24.70;61.90;;;;;;5184072;28;20053;-52
2021/07/02 10:20:16;;;;;;;5.03;3.20;;;24.70;61.80;;;;;;5197429;28;20052;-56
2021/07/02 10:22:50;;;;;;;7.95;3.28;;;24.70;61.80;;;;;;5184175;28;20071;-52
2021/07/02 10:25:26;;;;;;;7.00;3.00;;;24.70;61.80;;;;;;5180318;28;20536;-56
2021/07/02 10:27:59;;;;;;;8.10;3.10;;;24.70;61.80;;;;;;5181408;28;26331;-49
2021/07/02 10:30:32;;;;;;;4.75;3.13;;;24.70;61.70;;;;;;5169286;28;20631;-55
2021/07/02 10:33:05;;;;;;;5.72;3.20;;;24.70;61.90;;;;;;5175302;28;20041;-52
2021/07/02 10:35:43;;;;;;;7.22;2.88;;;24.70;61.80;;;;;;5184266;28;20052;-51
2021/07/02 10:38:16;;;;;;;7.85;3.08;;;24.70;61.80;;;;;;5177533;28;20056;-56
2021/07/02 10:40:49;;;;;;;5.37;3.63;;;24.70;61.80;;;;;;5188818;28;20559;-51
2021/07/02 10:43:22;;;;;;;5.70;3.03;;;24.70;61.70;;;;;;5206895;28;20045;-49
2021/07/02 10:46:07;;;;;;;4.63;3.33;;;24.70;61.70;;;;;;5208218;28;20548;-48
2021/07/02 10:48:52;;;;;;;3.83;3.00;;;24.70;61.80;;;;;;5198893;28;20053;-47
2021/07/02 10:51:51;;;;;;;6.15;3.13;;;24.70;61.70;;;;;;5205953;28;20045;-51
2021/07/02 10:54:26;;;;;;;3.42;2.70;;;24.70;61.80;;;;;;5185197;28;20048;-54
2021/07/02 10:57:03;;;;;;;4.70;3.30;;;24.70;61.80;;;;;;5176610;28;20053;-54
2021/07/02 10:59:42;;;;;;;5.07;3.17;;;24.70;61.70;;;;;;5170099;28;20049;-53
2021/07/02 11:02:24;;;;;;;3.45;3.05;;;24.70;61.70;;;;;;5189850;28;20057;-56
2021/07/02 11:05:02;;;;;;;4.80;3.38;;;24.80;61.80;;;;;;5182801;28;20056;-53
2021/07/02 11:07:39;;;;;;;6.22;3.30;;;24.80;61.80;;;;;;5178577;28;20042;-49
2021/07/02 11:10:12;;;;;;;5.30;2.88;;;24.80;61.70;;;;;;5177526;28;20413;-50
2021/07/02 11:12:45;;;;;;;8.02;3.22;;;24.80;61.80;;;;;;5190974;28;20041;-53
2021/07/02 11:15:19;;;;;;;7.60;3.65;;;24.80;61.80;;;;;;5178322;28;20049;-54
2021/07/02 11:18:23;;;;;;;4.85;3.10;;;24.80;61.70;;;;;;5177774;28;20058;-52
2021/07/02 11:21:13;;;;;;;6.47;3.20;;;24.80;61.60;;;;;;5178104;28;20414;-54
2021/07/02 11:23:47;;;;;;;5.15;3.22;;;24.80;61.60;;;;;;5189975;28;20079;-55
2021/07/02 11:26:39;;;;;;;4.95;3.22;;;24.80;61.60;;;;;;5184061;28;20383;-50
2021/07/02 11:29:12;;;;;;;6.28;3.33;;;24.80;61.40;;;;;;5184113;28;20052;-52
2021/07/02 11:31:45;;;;;;;7.07;3.63;;;24.80;61.50;;;;;;5181530;28;20457;-54
2021/07/02 11:34:20;;;;;;;7.70;3.60;;;24.80;61.40;;;;;;5187702;28;20081;-55
2021/07/02 11:37:09;;;;;;;6.75;3.53;;;24.80;61.30;;;;;;5174789;28;20091;-52
2021/07/02 11:39:45;;;;;;;6.28;3.95;;;24.80;61.30;;;;;;5182385;28;25858;-53
2021/07/02 11:42:18;;;;;;;7.43;3.80;;;24.80;61.20;;;;;;5190504;28;20053;-50
2021/07/02 11:44:51;;;;;;;8.32;4.50;;;24.90;61.20;;;;;;5191068;28;20057;-53
2021/07/02 11:47:24;;;;;;;11.20;3.77;;;24.90;61.20;;;;;;5189818;28;20056;-51
2021/07/02 11:49:57;;;;;;;9.27;4.10;;;24.90;61.10;;;;;;5193232;28;20056;-53
2021/07/02 11:52:34;;;;;;;8.25;3.72;;;25.00;61.20;;;;;;5190429;28;20053;-51
2021/07/02 11:55:08;;;;;;;10.82;3.92;;;25.00;61.20;;;;;;5187116;28;20539;-53
2021/07/02 11:57:46;;;;;;;10.20;3.97;;;25.00;61.20;;;;;;5189750;28;20233;-51
2021/07/02 12:00:34;;;;;;;8.38;4.07;;;25.00;61.20;;;;;;5181529;28;20059;-54
2021/07/02 12:03:09;;;;;;;7.82;3.80;;;24.90;60.90;;;;;;5168140;28;20048;-54
2021/07/02 12:05:55;;;;;;;5.93;3.72;;;25.00;61.00;;;;;;5174755;28;20187;-51
2021/07/02 12:08:30;;;;;;;6.18;4.25;;;24.90;60.90;;;;;;5190155;28;20413;-51
2021/07/02 12:11:05;;;;;;;8.95;3.75;;;24.90;60.70;;;;;;5189901;28;20045;-52
2021/07/02 12:13:38;;;;;;;7.00;4.25;;;24.90;60.60;;;;;;5188497;28;20793;-51
2021/07/02 12:16:11;;;;;;;7.10;4.00;;;24.90;60.40;;;;;;5186835;28;20056;-52
2021/07/02 12:18:51;;;;;;;9.40;3.80;;;24.90;60.40;;;;;;5175645;28;20323;-53
2021/07/02 12:21:30;;;;;;;8.25;5.13;;;24.90;60.30;;;;;;5182401;28;20068;-49
2021/07/02 12:24:05;;;;;;;8.50;4.50;;;25.00;60.20;;;;;;5176795;28;20511;-53
2021/07/02 12:26:37;;;;;;;7.18;3.75;;;25.00;60.40;;;;;;5177540;28;20453;-53
2021/07/02 12:29:12;;;;;;;13.40;4.60;;;25.00;60.30;;;;;;5176382;28;20064;-50
2021/07/02 12:31:51;;;;;;;11.43;5.13;;;25.00;61.30;;;;;;5180438;28;20405;-52
2021/07/02 12:34:26;;;;;;;9.38;4.38;;;25.00;60.70;;;;;;5170894;28;20056;-53
2021/07/02 12:37:10;;;;;;;8.18;4.10;;;25.00;60.60;;;;;;5173602;28;20575;-53
2021/07/02 12:39:50;;;;;;;17.05;5.22;;;25.00;60.80;;;;;;5157718;28;20585;-61
2021/07/02 12:42:33;;;;;;;19.23;4.90;;;25.10;61.40;;;;;;5167705;28;20421;-64
2021/07/02 12:45:12;;;;;;;9.17;4.47;;;25.20;61.90;;;;;;5171681;28;20544;-59
2021/07/02 12:47:45;;;;;;;13.27;3.92;;;25.20;60.90;;;;;;5172764;28;20057;-58
2021/07/02 12:50:21;;;;;;;13.77;4.50;;;25.30;60.70;;;;;;5189103;28;20045;-60
2021/07/02 12:55:46;;;;;;;17.27;4.93;;;25.30;60.30;;;;;;5164955;28;20914;-60
2021/07/02 12:58:18;;;;;;;13.52;4.70;;;25.40;60.40;;;;;;5167456;28;20056;-61
2021/07/02 13:00:51;;;;;;;13.50;4.00;;;25.40;60.10;;;;;;5158469;28;20045;-62
2021/07/02 13:03:24;;;;;;;12.75;5.30;;;25.40;60.20;;;;;;5166185;28;21199;-61
2021/07/02 13:06:11;;;;;;;11.35;4.20;;;25.40;60.30;;;;;;5148659;28;20695;-61
2021/07/02 13:08:44;;;;;;;9.75;4.63;;;25.40;60.20;;;;;;5152388;28;20132;-61
2021/07/02 13:11:18;;;;;;;7.20;4.53;;;25.40;60.40;;;;;;5152316;28;20179;-60
2021/07/02 13:13:51;;;;;;;11.93;4.70;;;25.40;60.60;;;;;;5164311;28;20046;-62
2021/07/02 13:16:24;;;;;;;6.68;3.95;;;25.40;60.70;;;;;;5159976;28;20368;-62
2021/07/02 13:18:57;;;;;;;9.48;4.07;;;25.40;60.70;;;;;;5162827;28;20042;-60
2021/07/02 13:21:33;;;;;;;9.93;3.87;;;25.40;60.80;;;;;;5156262;28;20627;-58
2021/07/02 13:24:05;;;;;;;14.18;4.50;;;25.30;60.80;;;;;;5159204;28;20049;-56
2021/07/02 13:26:38;;;;;;;8.03;4.20;;;25.40;61.00;;;;;;5165182;28;20068;-58
2021/07/02 13:29:13;;;;;;;12.33;4.50;;;25.40;61.00;;;;;;5164054;28;20425;-60
2021/07/02 13:31:53;;;;;;;7.18;3.83;;;25.30;61.00;;;;;;5155907;28;20311;-58
2021/07/02 13:34:46;;;;;;;17.27;4.95;;;25.30;61.20;;;;;;5159195;28;20588;-59
2021/07/02 13:37:26;;;;;;;13.70;4.43;;;25.30;60.90;;;;;;5162454;28;20048;-60
2021/07/02 13:39:59;;;;;;;15.05;4.50;;;25.30;60.60;;;;;;5165233;28;20049;-57
2021/07/02 13:42:39;;;;;;;17.63;5.13;;;25.30;60.60;;;;;;5150745;28;24144;-55
2021/07/02 13:45:13;;;;;;;14.02;5.63;;;25.30;60.60;;;;;;5163957;28;20056;-58
2021/07/02 13:47:46;;;;;;;19.40;4.80;;;25.30;60.70;;;;;;5161498;28;20045;-60
2021/07/02 13:50:20;;;;;;;19.80;5.20;;;25.30;60.80;;;;;;5164637;28;20049;-60
2021/07/02 13:52:53;;;;;;;10.40;4.05;;;25.40;60.80;;;;;;5166954;28;20528;-58
2021/07/02 13:55:25;;;;;;;14.63;4.78;;;25.40;60.80;;;;;;5161502;28;20518;-60
2021/07/02 13:57:57;;;;;;;12.35;4.30;;;25.40;60.90;;;;;;5172678;28;20049;-59
2021/07/02 14:00:30;;;;;;;11.10;4.50;;;25.40;61.10;;;;;;5165898;28;20048;-59
2021/07/02 14:03:02;;;;;;;18.20;4.70;;;25.40;61.10;;;;;;5166976;28;20520;-60
2021/07/02 14:05:37;;;;;;;12.52;5.07;;;25.40;61.10;;;;;;5168928;28;20954;-56
2021/07/02 14:08:10;;;;;;;12.52;4.28;;;25.40;61.10;;;;;;5167211;28;20045;-59